createdAt,value
2023-11-24T00:00:04.200Z,7
2023-11-24T00:02:21.978Z,6.9
2023-11-24T00:03:38.011Z,6.9
2023-11-24T00:06:39.035Z,6.9
2023-11-24T00:12:41.079Z,6.7
2023-11-24T00:15:42.103Z,6.7
2023-11-24T00:21:44.154Z,6.5
2023-11-24T00:24:45.178Z,6.5
2023-11-24T00:27:46.200Z,6.4
2023-11-24T00:36:16.758Z,6.2
2023-11-24T00:48:20.851Z,5.9
2023-11-24T00:51:21.880Z,5.9
2023-11-24T00:57:23.931Z,5.8
2023-11-24T01:02:42.723Z,5.8
2023-11-24T01:03:58.763Z,5.8
2023-11-24T01:06:59.779Z,5.8
2023-11-24T01:10:00.801Z,5.8
2023-11-24T01:15:30.087Z,5.8
2023-11-24T01:18:31.113Z,5.8
2023-11-24T01:21:32.135Z,5.9
2023-11-24T01:24:33.160Z,5.9
2023-11-24T01:27:34.187Z,5.9
2023-11-24T01:30:35.208Z,5.9
2023-11-24T01:32:52.985Z,5.9
2023-11-24T01:34:09.189Z,5.9
2023-11-24T01:37:10.213Z,5.9
2023-11-24T01:40:11.244Z,5.9
2023-11-24T01:46:13.289Z,5.8
2023-11-24T01:49:14.312Z,5.9
2023-11-24T01:52:15.337Z,5.9
2023-11-24T01:55:16.362Z,5.9
2023-11-24T01:58:17.384Z,6
2023-11-24T02:01:18.410Z,6
2023-11-24T02:03:03.241Z,6
2023-11-24T02:04:19.437Z,6
2023-11-24T02:10:21.481Z,5.9
2023-11-24T02:13:22.501Z,5.8
2023-11-24T02:16:23.534Z,5.7
2023-11-24T02:19:24.551Z,5.7
2023-11-24T02:22:25.580Z,5.7
2023-11-24T02:25:26.601Z,5.8
2023-11-24T02:31:28.654Z,5.8
2023-11-24T02:33:13.499Z,5.8
2023-11-24T02:34:29.673Z,5.8
2023-11-24T02:40:31.726Z,5.9
2023-11-24T02:46:33.775Z,5.9
2023-11-24T02:49:34.797Z,5.9
2023-11-24T02:52:35.819Z,5.8
2023-11-24T02:55:36.846Z,5.8
2023-11-24T02:58:37.861Z,5.8
2023-11-24T03:01:38.889Z,5.8
2023-11-24T03:03:23.762Z,5.8
2023-11-24T03:04:39.914Z,5.8
2023-11-24T03:07:40.942Z,5.8
2023-11-24T03:10:41.965Z,5.8
2023-11-24T03:13:42.983Z,5.7
2023-11-24T03:16:44.012Z,5.8
2023-11-24T03:19:45.032Z,5.7
2023-11-24T03:28:48.112Z,5.8
2023-11-24T03:31:49.136Z,5.7
2023-11-24T03:33:34.039Z,5.8
2023-11-24T03:34:50.161Z,5.8
2023-11-24T03:37:51.186Z,5.8
2023-11-24T03:40:52.203Z,5.8
2023-11-24T03:43:53.230Z,5.7
2023-11-24T03:46:54.256Z,5.6
2023-11-24T03:52:56.302Z,5.4
2023-11-24T03:55:57.327Z,5.4
2023-11-24T03:58:58.347Z,5.4
2023-11-24T04:01:59.370Z,5.5
2023-11-24T04:03:44.277Z,5.5
2023-11-24T04:05:00.400Z,5.5
2023-11-24T04:11:02.445Z,5.4
2023-11-24T04:14:03.470Z,5.3
2023-11-24T04:17:04.495Z,5.3
2023-11-24T04:20:05.516Z,5.4
2023-11-24T04:23:06.541Z,5.3
2023-11-24T04:26:07.567Z,5.3
2023-11-24T04:29:08.589Z,5.3
2023-11-24T04:32:09.618Z,5.4
2023-11-24T04:33:54.537Z,5.4
2023-11-24T04:41:12.687Z,5.4
2023-11-24T04:44:13.718Z,5.4
2023-11-24T04:47:14.736Z,5.4
2023-11-24T04:50:15.760Z,5.4
2023-11-24T04:53:16.781Z,5.4
2023-11-24T04:56:17.814Z,5.4
2023-11-24T04:59:18.841Z,5.4
2023-11-24T05:02:19.863Z,5.4
2023-11-24T05:04:04.803Z,5.4
2023-11-24T05:05:20.883Z,5.4
2023-11-24T05:08:21.913Z,5.4
2023-11-24T05:14:23.955Z,5.5
2023-11-24T05:17:24.982Z,5.5
2023-11-24T05:20:26.003Z,5.4
2023-11-24T05:23:27.033Z,5.3
2023-11-24T05:26:28.056Z,5.3
2023-11-24T05:29:29.077Z,5.2
2023-11-24T05:32:30.106Z,5.2
2023-11-24T05:34:15.056Z,5.2
2023-11-24T05:35:31.133Z,5.2
2023-11-24T05:38:32.157Z,5.2
2023-11-24T05:41:33.184Z,5.2
2023-11-24T05:47:35.232Z,5.1
2023-11-24T05:50:36.253Z,5.1
2023-11-24T05:53:37.276Z,5.1
2023-11-24T05:56:38.297Z,5
2023-11-24T05:59:39.329Z,5
2023-11-24T06:02:40.353Z,5
2023-11-24T06:04:25.320Z,5
2023-11-24T06:05:41.374Z,5
2023-11-24T06:08:42.400Z,5
2023-11-24T06:11:43.423Z,5
2023-11-24T06:14:44.447Z,5
2023-11-24T06:17:45.471Z,5
2023-11-24T06:20:46.495Z,5
2023-11-24T06:23:47.518Z,5
2023-11-24T06:26:48.539Z,5
2023-11-24T06:29:49.564Z,5
2023-11-24T06:34:35.583Z,4.9
2023-11-24T06:35:51.615Z,4.9
2023-11-24T06:38:52.644Z,4.9
2023-11-24T06:41:53.670Z,4.9
2023-11-24T06:44:54.685Z,4.8
2023-11-24T06:47:55.711Z,4.8
2023-11-24T06:50:56.738Z,4.8
2023-11-24T06:53:57.765Z,4.8
2023-11-24T06:56:58.787Z,4.7
2023-11-24T06:59:59.808Z,4.8
2023-11-24T07:03:00.837Z,4.8
2023-11-24T07:04:45.839Z,4.8
2023-11-24T07:06:01.858Z,4.7
2023-11-24T07:12:03.912Z,4.6
2023-11-24T07:15:04.931Z,4.5
2023-11-24T07:18:05.952Z,4.4
2023-11-24T07:21:06.983Z,4.4
2023-11-24T07:24:08.006Z,4.3
2023-11-24T07:30:10.056Z,4.2
2023-11-24T07:33:11.078Z,4.2
2023-11-24T07:34:56.106Z,4.2
2023-11-24T07:36:12.101Z,4.3
2023-11-24T07:39:13.129Z,4.3
2023-11-24T07:42:14.154Z,4.4
2023-11-24T07:45:15.174Z,4.4
2023-11-24T07:48:16.197Z,4.4
2023-11-24T07:51:17.218Z,4.4
2023-11-24T07:54:18.250Z,4.5
2023-11-24T07:57:19.271Z,4.5
2023-11-24T08:00:20.291Z,4.6
2023-11-24T08:03:21.322Z,4.7
2023-11-24T08:05:06.369Z,4.8
2023-11-24T08:06:22.349Z,4.8
2023-11-24T08:09:23.371Z,4.8
2023-11-24T08:12:24.397Z,4.8
2023-11-24T08:15:25.428Z,4.8
2023-11-24T08:18:26.442Z,4.8
2023-11-24T08:21:27.470Z,4.8
2023-11-24T08:24:28.495Z,4.9
2023-11-24T08:27:29.511Z,4.9
2023-11-24T08:30:30.538Z,4.9
2023-11-24T08:33:31.563Z,5
2023-11-24T08:35:16.629Z,5
2023-11-24T08:36:32.606Z,5
2023-11-24T08:39:33.622Z,5
2023-11-24T08:42:34.656Z,5
2023-11-24T08:45:35.674Z,5
2023-11-24T08:48:36.701Z,5
2023-11-24T08:51:37.726Z,5
2023-11-24T08:54:38.747Z,5.1
2023-11-24T08:57:39.767Z,5.1
2023-11-24T09:00:40.799Z,5
2023-11-24T09:03:41.820Z,5
2023-11-24T09:05:26.889Z,5.1
2023-11-24T09:06:43.025Z,5.1
2023-11-24T09:09:44.044Z,5.2
2023-11-24T09:15:46.096Z,5.3
2023-11-24T09:18:47.114Z,5.4
2023-11-24T09:21:48.140Z,5.4
2023-11-24T09:24:49.162Z,5.4
2023-11-24T09:27:50.193Z,5.5
2023-11-24T09:30:51.212Z,5.5
2023-11-24T09:33:52.232Z,5.5
2023-11-24T09:35:37.141Z,5.6
2023-11-24T09:36:53.264Z,5.6
2023-11-24T09:42:55.307Z,5.5
2023-11-24T09:45:56.334Z,5.4
2023-11-24T09:48:57.354Z,5.3
2023-11-24T09:51:58.382Z,5.2
2023-11-24T09:54:59.402Z,5
2023-11-24T09:58:00.428Z,4.8
2023-11-24T10:01:01.457Z,4.7
2023-11-24T10:04:02.475Z,4.8
2023-11-24T10:05:47.404Z,4.7
2023-11-24T10:07:03.504Z,4.8
2023-11-24T10:10:04.527Z,4.7
2023-11-24T10:13:05.557Z,4.8
2023-11-24T10:16:06.573Z,4.9
2023-11-24T10:19:07.599Z,5
2023-11-24T10:22:08.621Z,5
2023-11-24T10:25:09.645Z,5
2023-11-24T10:28:10.674Z,5
2023-11-24T10:31:11.696Z,5
2023-11-24T10:34:12.720Z,5.1
2023-11-24T10:35:57.665Z,5.2
2023-11-24T10:37:13.741Z,5.2
2023-11-24T10:40:14.774Z,5.3
2023-11-24T10:43:15.796Z,5.3
2023-11-24T10:46:16.818Z,5.4
2023-11-24T10:49:17.846Z,5.5
2023-11-24T10:55:19.887Z,5.4
2023-11-24T10:58:20.912Z,5.5
2023-11-24T11:06:07.921Z,5.8
2023-11-24T11:07:23.990Z,5.8
2023-11-24T11:10:25.008Z,5.8
2023-11-24T11:16:27.060Z,5.7
2023-11-24T11:25:30.133Z,5.5
2023-11-24T11:28:31.158Z,5.4
2023-11-24T11:31:32.178Z,5.3
2023-11-24T11:34:33.197Z,5.2
2023-11-24T11:36:18.177Z,5.2
2023-11-24T11:37:34.227Z,5.2
2023-11-24T11:40:35.250Z,5.2
2023-11-24T11:46:37.298Z,5.1
2023-11-24T11:52:39.349Z,4.9
2023-11-24T11:55:40.373Z,4.7
2023-11-24T11:58:41.399Z,4.5
2023-11-24T12:01:42.423Z,4.3
2023-11-24T12:04:43.447Z,4.3
2023-11-24T12:06:28.436Z,4.1
2023-11-24T12:13:46.513Z,4
2023-11-24T12:16:47.543Z,3.9
2023-11-24T12:19:48.561Z,4
2023-11-24T12:22:49.584Z,3.9
2023-11-24T12:25:50.612Z,3.9
2023-11-24T12:28:51.638Z,3.9
2023-11-24T12:31:52.658Z,3.9
2023-11-24T12:36:38.705Z,3.9
2023-11-24T12:37:54.708Z,3.9
2023-11-24T12:43:23.997Z,3.9
2023-11-24T12:46:25.022Z,3.9
2023-11-24T12:49:26.205Z,3.9
2023-11-24T12:52:43.450Z,3.9
2023-11-24T12:55:44.474Z,3.8
2023-11-24T12:58:45.503Z,3.8
2023-11-24T13:01:46.520Z,3.7
2023-11-24T13:04:47.550Z,3.6
2023-11-24T13:06:48.956Z,3.6
2023-11-24T13:08:04.940Z,3.6
2023-11-24T13:14:06.986Z,3.6
2023-11-24T13:17:08.011Z,3.6
2023-11-24T13:20:09.032Z,3.7
2023-11-24T13:23:10.059Z,3.7
2023-11-24T13:32:13.136Z,4.1
2023-11-24T13:35:14.162Z,4.1
2023-11-24T13:36:59.224Z,4.1
2023-11-24T13:38:15.202Z,4.1
2023-11-24T13:41:16.224Z,4.1
2023-11-24T13:44:17.254Z,4.1
2023-11-24T13:47:18.271Z,4.2
2023-11-24T13:50:19.296Z,4.2
2023-11-24T13:53:20.328Z,4.1
2023-11-24T13:56:21.343Z,3.9
2023-11-24T13:59:22.371Z,3.8
2023-11-24T14:05:24.423Z,3.8
2023-11-24T14:07:09.490Z,3.8
2023-11-24T14:08:25.468Z,3.8
2023-11-24T14:11:26.492Z,3.8
2023-11-24T14:14:27.517Z,3.8
2023-11-24T14:17:28.539Z,3.8
2023-11-24T14:20:29.565Z,3.8
2023-11-24T14:23:30.591Z,3.8
2023-11-24T14:26:31.613Z,3.8
2023-11-24T14:29:32.631Z,3.9
2023-11-24T14:32:33.659Z,3.9
2023-11-24T14:35:34.682Z,4
2023-11-24T14:37:19.746Z,3.9
2023-11-24T14:38:35.729Z,3.9
2023-11-24T14:41:36.752Z,3.9
2023-11-24T14:44:37.773Z,3.8
2023-11-24T14:53:08.086Z,3.8
2023-11-24T14:56:09.113Z,3.8
2023-11-24T14:59:10.137Z,3.8
2023-11-24T15:05:12.185Z,2.6
2023-11-24T15:07:30.009Z,1.9
2023-11-24T15:11:47.008Z,1.5
2023-11-24T15:17:49.058Z,1.1
2023-11-24T15:20:50.083Z,1
2023-11-24T15:23:51.116Z,0.9
2023-11-24T15:29:20.396Z,0.8
2023-11-24T15:35:22.447Z,0.7
2023-11-24T15:37:40.274Z,0.8
2023-11-24T15:38:56.411Z,0.8
2023-11-24T15:44:58.463Z,0.8
2023-11-24T15:47:59.485Z,0.8
2023-11-24T15:51:00.509Z,0.8
2023-11-24T15:54:01.540Z,0.9
2023-11-24T15:57:02.559Z,0.9
2023-11-24T16:00:03.585Z,1
2023-11-24T16:03:04.613Z,1
2023-11-24T16:06:05.636Z,1
2023-11-24T16:07:50.541Z,1.1
2023-11-24T16:09:06.662Z,1.1
2023-11-24T16:12:07.693Z,1.2
2023-11-24T16:15:08.715Z,1.2
2023-11-24T16:21:10.763Z,1.3
2023-11-24T16:24:11.784Z,1.3
2023-11-24T16:27:12.810Z,1.4
2023-11-24T16:30:13.837Z,1.5
2023-11-24T16:33:14.867Z,1.5
2023-11-24T16:36:15.891Z,1.5
2023-11-24T16:38:00.816Z,1.6
2023-11-24T16:42:17.943Z,1.7
2023-11-24T16:45:18.964Z,1.8
2023-11-24T16:50:48.254Z,1.9
2023-11-24T16:53:49.273Z,2.1
2023-11-24T16:56:50.300Z,2.2
2023-11-24T16:59:51.324Z,2.3
2023-11-24T17:02:52.351Z,2.4
2023-11-24T17:05:53.370Z,2.4
2023-11-24T17:08:11.079Z,2.5
2023-11-24T17:12:28.136Z,2.6
2023-11-24T17:30:34.283Z,1.3
2023-11-24T17:36:36.337Z,1.2
2023-11-24T17:38:21.348Z,1.2
2023-11-24T17:39:37.374Z,1.1
2023-11-24T17:42:38.401Z,1.1
2023-11-24T17:45:39.425Z,1.1
2023-11-24T17:48:40.456Z,1.1
2023-11-24T17:51:41.482Z,1.2
2023-11-24T17:54:42.504Z,1.2
2023-11-24T18:00:44.554Z,1
2023-11-24T18:03:45.578Z,1
2023-11-24T18:06:46.600Z,1
2023-11-24T18:08:31.617Z,1.1
2023-11-24T18:12:48.674Z,1.1
2023-11-24T18:15:49.695Z,1.2
2023-11-24T18:18:50.725Z,1.2
2023-11-24T18:24:52.771Z,1.3
2023-11-24T18:27:53.794Z,1.4
2023-11-24T18:30:54.823Z,1.5
2023-11-24T18:39:57.914Z,1.6
2023-11-24T18:45:59.964Z,1.7
2023-11-24T18:52:02.022Z,1.7
2023-11-24T18:55:03.042Z,1.7
2023-11-24T18:58:04.067Z,1.9
2023-11-24T19:01:05.087Z,1.9
2023-11-24T19:04:06.116Z,1.9
2023-11-24T19:07:07.141Z,2.1
2023-11-24T19:08:52.152Z,2.2
2023-11-24T19:10:08.184Z,2.2
2023-11-24T19:15:37.475Z,2.3
2023-11-24T19:18:38.500Z,2.3
2023-11-24T19:21:39.515Z,2.2
2023-11-24T19:24:40.543Z,2.2
2023-11-24T19:30:42.595Z,2.3
2023-11-24T19:36:44.646Z,2.3
2023-11-24T19:39:02.417Z,2.3
2023-11-24T19:40:18.449Z,2.4
2023-11-24T19:43:19.478Z,2.5
2023-11-24T19:46:20.499Z,2.5
2023-11-24T19:49:21.524Z,2.5
2023-11-24T19:52:22.547Z,2.6
2023-11-24T19:58:24.604Z,2.6
2023-11-24T20:01:25.630Z,2.6
2023-11-24T20:04:26.649Z,2.5
2023-11-24T20:07:27.674Z,2.6
2023-11-24T20:09:12.690Z,2.5
2023-11-24T20:10:28.718Z,2.5
2023-11-24T20:16:30.769Z,2.5
2023-11-24T20:19:31.799Z,2.4
2023-11-24T20:22:32.817Z,2.4
2023-11-24T20:25:33.849Z,2.4
2023-11-24T20:34:36.923Z,2.4
2023-11-24T20:37:37.945Z,2.5
2023-11-24T20:39:22.953Z,2.5
2023-11-24T20:43:40.010Z,2.5
2023-11-24T20:46:41.040Z,2.5
2023-11-24T20:49:42.065Z,2.5
2023-11-24T20:52:43.085Z,2.5
2023-11-24T20:55:44.107Z,2.5
2023-11-24T21:04:47.184Z,2.2
2023-11-24T21:07:48.206Z,2.1
2023-11-24T21:09:33.222Z,2
2023-11-24T21:10:49.252Z,1.9
2023-11-24T21:13:50.274Z,1.9
2023-11-24T21:16:51.299Z,1.8
2023-11-24T21:19:52.329Z,1.7
2023-11-24T21:25:54.374Z,1.6
2023-11-24T21:28:55.404Z,1.6
2023-11-24T21:31:56.431Z,1.6
2023-11-24T21:37:58.472Z,1.8
2023-11-24T21:39:43.491Z,1.8
2023-11-24T21:47:01.566Z,1.9
2023-11-24T21:50:02.592Z,1.9
2023-11-24T21:53:03.618Z,2
2023-11-24T21:56:04.637Z,2
2023-11-24T21:59:05.665Z,2
2023-11-24T22:02:06.687Z,2
2023-11-24T22:05:07.716Z,2
2023-11-24T22:09:53.756Z,2.1
2023-11-24T22:11:09.791Z,2.1
2023-11-24T22:17:11.840Z,2
2023-11-24T22:20:12.858Z,2
2023-11-24T22:23:13.885Z,2.1
2023-11-24T22:29:15.934Z,2
2023-11-24T22:32:16.960Z,2
2023-11-24T22:40:04.028Z,1.9
2023-11-24T22:44:21.078Z,1.9
2023-11-24T22:50:23.126Z,1.8
2023-11-24T22:53:24.159Z,1.8
2023-11-24T22:56:25.180Z,1.7
2023-11-24T22:59:26.202Z,1.7
2023-11-24T23:08:29.283Z,1.7
2023-11-24T23:10:14.290Z,1.7
2023-11-24T23:11:30.506Z,1.6
2023-11-24T23:26:02.861Z,1.5
2023-11-24T23:29:03.886Z,1.5
2023-11-24T23:35:05.941Z,1.3
2023-11-24T23:38:06.963Z,1.1
2023-11-24T23:40:24.561Z,1.1
2023-11-24T23:53:44.692Z,1.1
2023-11-24T23:56:45.712Z,1.2
2023-11-24T23:59:46.737Z,1.2
